sensor_id;sensor_type;location;lat;lon;timestamp;temperature;humidity
12632;DHT22;6381;45.748;12.106;2022-11-15T00:00:57;10.80;99.90
12632;DHT22;6381;45.748;12.106;2022-11-15T00:03:44;10.40;99.90
12632;DHT22;6381;45.748;12.106;2022-11-15T00:06:34;10.40;99.90
12632;DHT22;6381;45.748;12.106;2022-11-15T00:09:21;10.60;99.90
12632;DHT22;6381;45.748;12.106;2022-11-15T00:12:09;10.40;99.90
12632;DHT22;6381;45.748;12.106;2022-11-15T00:14:57;10.50;99.90
12632;DHT22;6381;45.748;12.106;2022-11-15T00:17:44;10.60;99.90
12632;DHT22;6381;45.748;12.106;2022-11-15T00:20:35;10.60;99.90
12632;DHT22;6381;45.748;12.106;2022-11-15T00:23:24;10.80;99.90
12632;DHT22;6381;45.748;12.106;2022-11-15T00:26:12;10.80;99.90
12632;DHT22;6381;45.748;12.106;2022-11-15T02:35:28;9.20;99.90
12632;DHT22;6381;45.748;12.106;2022-11-15T02:38:22;9.30;99.90
12632;DHT22;6381;45.748;12.106;2022-11-15T02:41:14;9.50;99.90
12632;DHT22;6381;45.748;12.106;2022-11-15T02:44:07;9.60;99.90
12632;DHT22;6381;45.748;12.106;2022-11-15T02:46:57;9.70;99.90
12632;DHT22;6381;45.748;12.106;2022-11-15T02:50:02;9.50;99.90
12632;DHT22;6381;45.748;12.106;2022-11-15T02:52:53;9.60;99.90
12632;DHT22;6381;45.748;12.106;2022-11-15T02:55:44;9.50;99.90
12632;DHT22;6381;45.748;12.106;2022-11-15T02:59:01;9.50;99.90
12632;DHT22;6381;45.748;12.106;2022-11-15T03:02:07;9.50;99.90
12632;DHT22;6381;45.748;12.106;2022-11-15T03:05:20;9.60;99.90
12632;DHT22;6381;45.748;12.106;2022-11-15T03:08:17;9.40;99.90
12632;DHT22;6381;45.748;12.106;2022-11-15T03:11:11;9.70;99.90
12632;DHT22;6381;45.748;12.106;2022-11-15T03:14:05;9.70;99.90
12632;DHT22;6381;45.748;12.106;2022-11-15T03:16:58;9.70;99.90
12632;DHT22;6381;45.748;12.106;2022-11-15T03:19:51;9.80;99.90
12632;DHT22;6381;45.748;12.106;2022-11-15T03:22:42;9.60;99.90
12632;DHT22;6381;45.748;12.106;2022-11-15T03:25:34;9.60;99.90
12632;DHT22;6381;45.748;12.106;2022-11-15T03:28:25;9.50;99.90
12632;DHT22;6381;45.748;12.106;2022-11-15T03:31:16;9.40;99.90
12632;DHT22;6381;45.748;12.106;2022-11-15T03:34:25;9.30;99.90
12632;DHT22;6381;45.748;12.106;2022-11-15T03:37:15;9.50;99.90
12632;DHT22;6381;45.748;12.106;2022-11-15T03:40:04;9.20;99.90
12632;DHT22;6381;45.748;12.106;2022-11-15T03:43:17;9.40;99.90
12632;DHT22;6381;45.748;12.106;2022-11-15T03:46:13;9.40;99.90
12632;DHT22;6381;45.748;12.106;2022-11-15T03:49:15;9.40;99.90
12632;DHT22;6381;45.748;12.106;2022-11-15T03:52:05;9.40;99.90
12632;DHT22;6381;45.748;12.106;2022-11-15T03:54:54;9.50;99.90
12632;DHT22;6381;45.748;12.106;2022-11-15T03:57:42;9.30;99.90
12632;DHT22;6381;45.748;12.106;2022-11-15T04:00:31;9.50;99.90
12632;DHT22;6381;45.748;12.106;2022-11-15T04:03:19;9.50;99.90
12632;DHT22;6381;45.748;12.106;2022-11-15T04:06:06;9.50;99.90
12632;DHT22;6381;45.748;12.106;2022-11-15T04:08:53;9.10;99.90
12632;DHT22;6381;45.748;12.106;2022-11-15T04:11:41;9.30;99.90
12632;DHT22;6381;45.748;12.106;2022-11-15T04:14:45;9.30;99.90
12632;DHT22;6381;45.748;12.106;2022-11-15T04:17:55;9.10;99.90
12632;DHT22;6381;45.748;12.106;2022-11-15T04:20:43;9.00;99.90
12632;DHT22;6381;45.748;12.106;2022-11-15T04:23:48;9.20;99.90
12632;DHT22;6381;45.748;12.106;2022-11-15T04:26:53;9.10;99.90
12632;DHT22;6381;45.748;12.106;2022-11-15T04:29:40;9.00;99.90
12632;DHT22;6381;45.748;12.106;2022-11-15T04:32:28;9.00;99.90
12632;DHT22;6381;45.748;12.106;2022-11-15T04:35:17;9.00;99.90
12632;DHT22;6381;45.748;12.106;2022-11-15T04:38:05;8.80;99.90
12632;DHT22;6381;45.748;12.106;2022-11-15T04:41:10;9.10;99.90
12632;DHT22;6381;45.748;12.106;2022-11-15T04:43:57;9.20;99.90
12632;DHT22;6381;45.748;12.106;2022-11-15T04:46:44;9.00;99.90
12632;DHT22;6381;45.748;12.106;2022-11-15T04:49:32;9.00;99.90
12632;DHT22;6381;45.748;12.106;2022-11-15T04:52:20;9.10;99.90
12632;DHT22;6381;45.748;12.106;2022-11-15T04:55:08;9.20;99.90
12632;DHT22;6381;45.748;12.106;2022-11-15T04:57:59;8.90;99.90
12632;DHT22;6381;45.748;12.106;2022-11-15T05:00:46;8.50;99.90
12632;DHT22;6381;45.748;12.106;2022-11-15T05:03:34;8.40;99.90
12632;DHT22;6381;45.748;12.106;2022-11-15T05:06:38;8.50;99.90
12632;DHT22;6381;45.748;12.106;2022-11-15T05:09:27;8.70;99.90
12632;DHT22;6381;45.748;12.106;2022-11-15T05:12:32;8.60;99.90
12632;DHT22;6381;45.748;12.106;2022-11-15T05:15:20;8.60;99.90
12632;DHT22;6381;45.748;12.106;2022-11-15T05:18:07;8.80;99.90
12632;DHT22;6381;45.748;12.106;2022-11-15T05:20:54;8.90;99.90
12632;DHT22;6381;45.748;12.106;2022-11-15T05:23:42;9.00;99.90
12632;DHT22;6381;45.748;12.106;2022-11-15T05:26:30;9.00;99.90
12632;DHT22;6381;45.748;12.106;2022-11-15T05:29:18;9.00;99.90
12632;DHT22;6381;45.748;12.106;2022-11-15T05:32:06;9.10;99.90
12632;DHT22;6381;45.748;12.106;2022-11-15T05:34:55;9.20;99.90
12632;DHT22;6381;45.748;12.106;2022-11-15T05:37:43;8.90;99.90
12632;DHT22;6381;45.748;12.106;2022-11-15T05:40:31;8.80;99.90
12632;DHT22;6381;45.748;12.106;2022-11-15T05:43:21;8.90;99.90
12632;DHT22;6381;45.748;12.106;2022-11-15T05:46:26;9.10;99.90
12632;DHT22;6381;45.748;12.106;2022-11-15T05:49:17;9.10;99.90
12632;DHT22;6381;45.748;12.106;2022-11-15T05:52:07;9.00;99.90
12632;DHT22;6381;45.748;12.106;2022-11-15T05:54:57;9.10;99.90
12632;DHT22;6381;45.748;12.106;2022-11-15T05:57:45;8.90;99.90
12632;DHT22;6381;45.748;12.106;2022-11-15T06:00:34;8.80;99.90
12632;DHT22;6381;45.748;12.106;2022-11-15T06:03:21;8.80;99.90
12632;DHT22;6381;45.748;12.106;2022-11-15T06:06:09;8.70;99.90
12632;DHT22;6381;45.748;12.106;2022-11-15T06:09:01;8.90;99.90
12632;DHT22;6381;45.748;12.106;2022-11-15T06:11:48;8.90;99.90
12632;DHT22;6381;45.748;12.106;2022-11-15T06:14:35;9.00;99.90
12632;DHT22;6381;45.748;12.106;2022-11-15T06:17:24;9.10;99.90
12632;DHT22;6381;45.748;12.106;2022-11-15T06:20:12;9.10;99.90
12632;DHT22;6381;45.748;12.106;2022-11-15T06:23:00;9.00;99.90
12632;DHT22;6381;45.748;12.106;2022-11-15T06:25:48;9.00;99.90
12632;DHT22;6381;45.748;12.106;2022-11-15T06:28:35;8.90;99.90
12632;DHT22;6381;45.748;12.106;2022-11-15T06:31:23;9.10;99.90
12632;DHT22;6381;45.748;12.106;2022-11-15T06:34:12;9.20;99.90
12632;DHT22;6381;45.748;12.106;2022-11-15T06:37:00;9.40;99.90
12632;DHT22;6381;45.748;12.106;2022-11-15T06:39:47;9.40;99.90
12632;DHT22;6381;45.748;12.106;2022-11-15T06:42:35;9.40;99.90
12632;DHT22;6381;45.748;12.106;2022-11-15T06:45:22;9.30;99.90
12632;DHT22;6381;45.748;12.106;2022-11-15T06:48:09;9.40;99.90
12632;DHT22;6381;45.748;12.106;2022-11-15T06:50:59;9.60;99.90
12632;DHT22;6381;45.748;12.106;2022-11-15T06:53:47;9.70;99.90
12632;DHT22;6381;45.748;12.106;2022-11-15T06:56:34;9.80;99.90
12632;DHT22;6381;45.748;12.106;2022-11-15T06:59:21;9.80;99.90
12632;DHT22;6381;45.748;12.106;2022-11-15T07:02:12;9.80;99.90
12632;DHT22;6381;45.748;12.106;2022-11-15T07:05:00;9.60;99.90
12632;DHT22;6381;45.748;12.106;2022-11-15T07:07:53;9.50;99.90
12632;DHT22;6381;45.748;12.106;2022-11-15T07:10:41;9.80;99.90
12632;DHT22;6381;45.748;12.106;2022-11-15T07:13:29;9.90;99.90
12632;DHT22;6381;45.748;12.106;2022-11-15T07:16:20;9.80;99.90
12632;DHT22;6381;45.748;12.106;2022-11-15T07:19:08;9.80;99.90
12632;DHT22;6381;45.748;12.106;2022-11-15T07:21:57;9.70;99.90
12632;DHT22;6381;45.748;12.106;2022-11-15T07:24:45;9.60;99.90
12632;DHT22;6381;45.748;12.106;2022-11-15T07:27:33;9.70;99.90
12632;DHT22;6381;45.748;12.106;2022-11-15T07:30:20;9.80;99.90
12632;DHT22;6381;45.748;12.106;2022-11-15T07:33:07;10.00;99.90
12632;DHT22;6381;45.748;12.106;2022-11-15T07:35:58;10.40;99.90
12632;DHT22;6381;45.748;12.106;2022-11-15T07:38:47;10.50;99.90
12632;DHT22;6381;45.748;12.106;2022-11-15T07:41:35;10.50;99.90
12632;DHT22;6381;45.748;12.106;2022-11-15T07:44:25;10.70;99.90
12632;DHT22;6381;45.748;12.106;2022-11-15T07:47:13;11.10;99.90
12632;DHT22;6381;45.748;12.106;2022-11-15T07:50:00;11.20;99.90
12632;DHT22;6381;45.748;12.106;2022-11-15T07:52:47;11.20;99.90
12632;DHT22;6381;45.748;12.106;2022-11-15T07:55:34;11.20;99.90
12632;DHT22;6381;45.748;12.106;2022-11-15T07:58:23;11.00;99.90
12632;DHT22;6381;45.748;12.106;2022-11-15T08:01:28;11.20;99.90
12632;DHT22;6381;45.748;12.106;2022-11-15T08:04:16;11.30;99.90
12632;DHT22;6381;45.748;12.106;2022-11-15T08:07:04;11.60;99.90
12632;DHT22;6381;45.748;12.106;2022-11-15T08:09:51;11.60;99.90
12632;DHT22;6381;45.748;12.106;2022-11-15T08:12:38;11.60;99.90
12632;DHT22;6381;45.748;12.106;2022-11-15T08:15:27;11.90;99.90
12632;DHT22;6381;45.748;12.106;2022-11-15T08:18:16;12.10;99.90
12632;DHT22;6381;45.748;12.106;2022-11-15T08:21:04;12.40;99.90
12632;DHT22;6381;45.748;12.106;2022-11-15T08:23:51;12.70;99.90
12632;DHT22;6381;45.748;12.106;2022-11-15T08:26:56;12.60;99.90
12632;DHT22;6381;45.748;12.106;2022-11-15T08:29:44;12.60;99.90
12632;DHT22;6381;45.748;12.106;2022-11-15T08:32:33;12.60;99.90
12632;DHT22;6381;45.748;12.106;2022-11-15T08:35:21;12.50;99.90
12632;DHT22;6381;45.748;12.106;2022-11-15T08:38:14;12.60;99.90
12632;DHT22;6381;45.748;12.106;2022-11-15T08:41:04;12.80;99.90
12632;DHT22;6381;45.748;12.106;2022-11-15T08:43:51;12.70;99.90
12632;DHT22;6381;45.748;12.106;2022-11-15T08:46:39;12.90;99.90
12632;DHT22;6381;45.748;12.106;2022-11-15T08:49:28;13.10;99.90
12632;DHT22;6381;45.748;12.106;2022-11-15T08:52:16;13.20;99.90
12632;DHT22;6381;45.748;12.106;2022-11-15T08:55:04;13.40;99.90
12632;DHT22;6381;45.748;12.106;2022-11-15T08:57:51;13.40;99.90
12632;DHT22;6381;45.748;12.106;2022-11-15T09:00:39;13.30;99.90
12632;DHT22;6381;45.748;12.106;2022-11-15T09:03:26;13.40;99.90
12632;DHT22;6381;45.748;12.106;2022-11-15T09:06:15;13.50;99.90
12632;DHT22;6381;45.748;12.106;2022-11-15T09:09:03;13.60;99.90
12632;DHT22;6381;45.748;12.106;2022-11-15T09:11:51;13.60;99.90
12632;DHT22;6381;45.748;12.106;2022-11-15T09:14:45;13.60;99.90
12632;DHT22;6381;45.748;12.106;2022-11-15T09:17:33;13.70;99.90
12632;DHT22;6381;45.748;12.106;2022-11-15T09:20:20;14.20;99.90
12632;DHT22;6381;45.748;12.106;2022-11-15T09:23:09;14.20;99.90
12632;DHT22;6381;45.748;12.106;2022-11-15T09:25:59;14.50;99.90
12632;DHT22;6381;45.748;12.106;2022-11-15T09:28:47;14.60;99.90
12632;DHT22;6381;45.748;12.106;2022-11-15T09:31:34;14.60;99.90
12632;DHT22;6381;45.748;12.106;2022-11-15T09:34:22;14.70;99.90
12632;DHT22;6381;45.748;12.106;2022-11-15T09:37:09;14.80;99.90
12632;DHT22;6381;45.748;12.106;2022-11-15T09:39:59;14.50;99.90
12632;DHT22;6381;45.748;12.106;2022-11-15T09:42:56;14.60;99.90
12632;DHT22;6381;45.748;12.106;2022-11-15T09:45:53;14.40;99.90
12632;DHT22;6381;45.748;12.106;2022-11-15T09:48:50;14.30;99.90
12632;DHT22;6381;45.748;12.106;2022-11-15T09:51:30;14.50;99.90
12632;DHT22;6381;45.748;12.106;2022-11-15T09:54:25;14.70;99.90
12632;DHT22;6381;45.748;12.106;2022-11-15T09:57:20;14.60;99.90
12632;DHT22;6381;45.748;12.106;2022-11-15T10:00:00;14.70;99.90
12632;DHT22;6381;45.748;12.106;2022-11-15T10:03:08;14.90;99.90
12632;DHT22;6381;45.748;12.106;2022-11-15T10:05:40;14.90;99.90
12632;DHT22;6381;45.748;12.106;2022-11-15T10:08:31;15.00;99.90
12632;DHT22;6381;45.748;12.106;2022-11-15T10:11:04;15.20;99.90
12632;DHT22;6381;45.748;12.106;2022-11-15T10:13:58;14.80;99.90
12632;DHT22;6381;45.748;12.106;2022-11-15T10:17:02;14.50;99.90
12632;DHT22;6381;45.748;12.106;2022-11-15T10:19:40;14.20;99.90
12632;DHT22;6381;45.748;12.106;2022-11-15T10:22:24;14.10;99.90
12632;DHT22;6381;45.748;12.106;2022-11-15T10:25:06;14.40;99.90
12632;DHT22;6381;45.748;12.106;2022-11-15T10:27:39;14.80;99.90
12632;DHT22;6381;45.748;12.106;2022-11-15T10:30:15;15.10;99.90
12632;DHT22;6381;45.748;12.106;2022-11-15T10:32:46;15.60;99.90
12632;DHT22;6381;45.748;12.106;2022-11-15T10:35:24;16.00;99.70
12632;DHT22;6381;45.748;12.106;2022-11-15T10:38:04;15.90;98.00
12632;DHT22;6381;45.748;12.106;2022-11-15T10:40:34;15.70;98.90
12632;DHT22;6381;45.748;12.106;2022-11-15T10:43:17;15.30;98.80
12632;DHT22;6381;45.748;12.106;2022-11-15T10:45:48;15.30;98.70
12632;DHT22;6381;45.748;12.106;2022-11-15T10:48:24;15.10;98.50
12632;DHT22;6381;45.748;12.106;2022-11-15T10:50:54;15.20;98.80
12632;DHT22;6381;45.748;12.106;2022-11-15T10:53:33;15.00;99.10
12632;DHT22;6381;45.748;12.106;2022-11-15T10:56:07;14.90;99.40
12632;DHT22;6381;45.748;12.106;2022-11-15T10:58:38;14.60;99.60
12632;DHT22;6381;45.748;12.106;2022-11-15T11:01:12;14.00;99.90
12632;DHT22;6381;45.748;12.106;2022-11-15T11:03:43;13.30;99.90
12632;DHT22;6381;45.748;12.106;2022-11-15T11:06:13;13.20;99.90
12632;DHT22;6381;45.748;12.106;2022-11-15T11:08:55;13.30;99.90
12632;DHT22;6381;45.748;12.106;2022-11-15T11:11:24;13.30;99.90
12632;DHT22;6381;45.748;12.106;2022-11-15T11:14:12;13.20;99.90
12632;DHT22;6381;45.748;12.106;2022-11-15T11:16:47;13.00;99.90
12632;DHT22;6381;45.748;12.106;2022-11-15T11:22:26;13.00;99.90
12632;DHT22;6381;45.748;12.106;2022-11-15T11:25:12;13.40;99.90
12632;DHT22;6381;45.748;12.106;2022-11-15T11:28:14;13.10;99.90
12632;DHT22;6381;45.748;12.106;2022-11-15T11:30:54;12.90;99.90
12632;DHT22;6381;45.748;12.106;2022-11-15T11:33:30;12.80;99.90
12632;DHT22;6381;45.748;12.106;2022-11-15T11:36:10;13.30;99.90
12632;DHT22;6381;45.748;12.106;2022-11-15T11:38:51;13.80;99.90
12632;DHT22;6381;45.748;12.106;2022-11-15T11:41:38;13.80;99.90
12632;DHT22;6381;45.748;12.106;2022-11-15T11:44:23;13.40;99.90
12632;DHT22;6381;45.748;12.106;2022-11-15T11:46:56;13.00;99.90
12632;DHT22;6381;45.748;12.106;2022-11-15T11:49:30;12.80;99.90
12632;DHT22;6381;45.748;12.106;2022-11-15T11:52:05;12.50;99.90
12632;DHT22;6381;45.748;12.106;2022-11-15T11:54:45;12.30;99.90
12632;DHT22;6381;45.748;12.106;2022-11-15T11:57:21;12.10;99.90
12632;DHT22;6381;45.748;12.106;2022-11-15T11:59:56;11.60;99.90
12632;DHT22;6381;45.748;12.106;2022-11-15T12:02:30;12.20;99.90
12632;DHT22;6381;45.748;12.106;2022-11-15T12:05:10;12.10;99.90
12632;DHT22;6381;45.748;12.106;2022-11-15T12:07:43;12.00;99.90
12632;DHT22;6381;45.748;12.106;2022-11-15T12:10:22;12.10;99.90
12632;DHT22;6381;45.748;12.106;2022-11-15T12:12:56;12.10;99.90
12632;DHT22;6381;45.748;12.106;2022-11-15T12:15:31;12.10;99.90
12632;DHT22;6381;45.748;12.106;2022-11-15T12:18:01;12.10;99.90
12632;DHT22;6381;45.748;12.106;2022-11-15T12:20:34;12.20;99.90
12632;DHT22;6381;45.748;12.106;2022-11-15T12:23:11;12.00;99.90
12632;DHT22;6381;45.748;12.106;2022-11-15T12:25:46;12.10;99.90
12632;DHT22;6381;45.748;12.106;2022-11-15T12:28:31;12.20;99.90
12632;DHT22;6381;45.748;12.106;2022-11-15T12:31:06;12.20;99.90
12632;DHT22;6381;45.748;12.106;2022-11-15T12:33:41;12.10;99.90
12632;DHT22;6381;45.748;12.106;2022-11-15T12:36:31;12.10;99.90
12632;DHT22;6381;45.748;12.106;2022-11-15T12:39:04;12.20;99.90
12632;DHT22;6381;45.748;12.106;2022-11-15T12:41:35;12.30;99.90
12632;DHT22;6381;45.748;12.106;2022-11-15T12:44:05;12.20;99.90
12632;DHT22;6381;45.748;12.106;2022-11-15T12:47:22;12.00;99.90
12632;DHT22;6381;45.748;12.106;2022-11-15T12:49:52;12.30;99.90
12632;DHT22;6381;45.748;12.106;2022-11-15T12:52:23;12.20;99.90
12632;DHT22;6381;45.748;12.106;2022-11-15T12:55:08;12.10;99.90
12632;DHT22;6381;45.748;12.106;2022-11-15T12:57:54;12.20;99.90
12632;DHT22;6381;45.748;12.106;2022-11-15T13:00:44;12.20;99.90
12632;DHT22;6381;45.748;12.106;2022-11-15T13:03:27;12.10;99.90
12632;DHT22;6381;45.748;12.106;2022-11-15T13:06:09;12.00;99.90
12632;DHT22;6381;45.748;12.106;2022-11-15T13:08:57;12.10;99.90
12632;DHT22;6381;45.748;12.106;2022-11-15T13:11:49;12.20;99.90
12632;DHT22;6381;45.748;12.106;2022-11-15T13:14:45;12.30;99.90
12632;DHT22;6381;45.748;12.106;2022-11-15T13:17:33;12.30;99.90
12632;DHT22;6381;45.748;12.106;2022-11-15T13:20:22;12.30;99.90
12632;DHT22;6381;45.748;12.106;2022-11-15T13:22:59;12.30;99.90
12632;DHT22;6381;45.748;12.106;2022-11-15T13:26:06;12.30;99.90
12632;DHT22;6381;45.748;12.106;2022-11-15T13:28:41;12.30;99.90
12632;DHT22;6381;45.748;12.106;2022-11-15T13:31:27;12.00;99.90
12632;DHT22;6381;45.748;12.106;2022-11-15T13:33:59;12.30;99.90
12632;DHT22;6381;45.748;12.106;2022-11-15T13:36:31;12.20;99.90
12632;DHT22;6381;45.748;12.106;2022-11-15T13:39:03;12.50;99.90
12632;DHT22;6381;45.748;12.106;2022-11-15T13:41:34;12.40;99.90
12632;DHT22;6381;45.748;12.106;2022-11-15T13:44:04;12.30;99.90
12632;DHT22;6381;45.748;12.106;2022-11-15T13:46:34;12.30;99.90
12632;DHT22;6381;45.748;12.106;2022-11-15T13:49:05;12.30;99.90
12632;DHT22;6381;45.748;12.106;2022-11-15T13:51:37;12.40;99.90
12632;DHT22;6381;45.748;12.106;2022-11-15T13:54:16;12.40;99.90
12632;DHT22;6381;45.748;12.106;2022-11-15T13:56:49;12.40;99.90
12632;DHT22;6381;45.748;12.106;2022-11-15T13:59:24;12.40;99.90
12632;DHT22;6381;45.748;12.106;2022-11-15T14:01:56;12.50;99.90
12632;DHT22;6381;45.748;12.106;2022-11-15T14:04:28;12.30;99.90
12632;DHT22;6381;45.748;12.106;2022-11-15T14:07:02;12.20;99.90
12632;DHT22;6381;45.748;12.106;2022-11-15T14:09:37;12.30;99.90
12632;DHT22;6381;45.748;12.106;2022-11-15T14:12:29;12.30;99.90
12632;DHT22;6381;45.748;12.106;2022-11-15T14:15:01;12.30;99.90
12632;DHT22;6381;45.748;12.106;2022-11-15T14:17:38;12.50;99.90
12632;DHT22;6381;45.748;12.106;2022-11-15T14:20:28;12.50;99.90
12632;DHT22;6381;45.748;12.106;2022-11-15T14:23:00;12.40;99.90
12632;DHT22;6381;45.748;12.106;2022-11-15T14:25:30;12.40;99.90
12632;DHT22;6381;45.748;12.106;2022-11-15T14:28:11;12.40;99.90
12632;DHT22;6381;45.748;12.106;2022-11-15T14:30:41;12.50;99.90
12632;DHT22;6381;45.748;12.106;2022-11-15T14:33:21;12.40;99.90
12632;DHT22;6381;45.748;12.106;2022-11-15T14:35:51;12.50;99.90
12632;DHT22;6381;45.748;12.106;2022-11-15T14:38:20;12.50;99.90
12632;DHT22;6381;45.748;12.106;2022-11-15T14:40:49;12.30;99.90
12632;DHT22;6381;45.748;12.106;2022-11-15T14:43:18;12.20;99.90
12632;DHT22;6381;45.748;12.106;2022-11-15T14:45:46;12.20;99.90
12632;DHT22;6381;45.748;12.106;2022-11-15T14:48:15;12.50;99.90
12632;DHT22;6381;45.748;12.106;2022-11-15T14:50:46;12.40;99.90
12632;DHT22;6381;45.748;12.106;2022-11-15T14:53:16;12.30;99.90
12632;DHT22;6381;45.748;12.106;2022-11-15T14:55:46;12.30;99.90
12632;DHT22;6381;45.748;12.106;2022-11-15T14:58:15;12.30;99.90
12632;DHT22;6381;45.748;12.106;2022-11-15T15:00:44;12.30;99.90
12632;DHT22;6381;45.748;12.106;2022-11-15T15:03:13;12.30;99.90
12632;DHT22;6381;45.748;12.106;2022-11-15T15:05:44;12.30;99.90
12632;DHT22;6381;45.748;12.106;2022-11-15T15:08:13;12.30;99.90
12632;DHT22;6381;45.748;12.106;2022-11-15T15:10:43;12.30;99.90
12632;DHT22;6381;45.748;12.106;2022-11-15T15:13:16;12.30;99.90
12632;DHT22;6381;45.748;12.106;2022-11-15T15:15:46;12.40;99.90
12632;DHT22;6381;45.748;12.106;2022-11-15T15:18:32;12.40;99.90
12632;DHT22;6381;45.748;12.106;2022-11-15T15:21:22;12.40;99.90
12632;DHT22;6381;45.748;12.106;2022-11-15T15:23:52;12.40;99.90
12632;DHT22;6381;45.748;12.106;2022-11-15T15:26:23;12.30;99.90
12632;DHT22;6381;45.748;12.106;2022-11-15T15:28:52;12.10;99.90
12632;DHT22;6381;45.748;12.106;2022-11-15T15:31:21;12.10;99.90
12632;DHT22;6381;45.748;12.106;2022-11-15T15:34:07;12.20;99.90
12632;DHT22;6381;45.748;12.106;2022-11-15T15:36:44;12.30;99.90
12632;DHT22;6381;45.748;12.106;2022-11-15T15:39:13;12.30;99.90
12632;DHT22;6381;45.748;12.106;2022-11-15T15:41:59;12.30;99.90
12632;DHT22;6381;45.748;12.106;2022-11-15T15:44:28;12.20;99.90
12632;DHT22;6381;45.748;12.106;2022-11-15T15:47:16;12.30;99.90
12632;DHT22;6381;45.748;12.106;2022-11-15T15:49:46;12.30;99.90
12632;DHT22;6381;45.748;12.106;2022-11-15T15:52:17;12.30;99.90
12632;DHT22;6381;45.748;12.106;2022-11-15T15:54:46;12.20;99.90
12632;DHT22;6381;45.748;12.106;2022-11-15T15:57:15;12.30;99.90
12632;DHT22;6381;45.748;12.106;2022-11-15T15:59:44;12.20;99.90
12632;DHT22;6381;45.748;12.106;2022-11-15T16:02:13;12.30;99.90
12632;DHT22;6381;45.748;12.106;2022-11-15T16:04:42;12.30;99.90
12632;DHT22;6381;45.748;12.106;2022-11-15T16:07:17;12.20;99.90
12632;DHT22;6381;45.748;12.106;2022-11-15T16:09:51;12.10;99.90
12632;DHT22;6381;45.748;12.106;2022-11-15T16:12:29;12.00;99.90
12632;DHT22;6381;45.748;12.106;2022-11-15T16:15:16;12.00;99.90
12632;DHT22;6381;45.748;12.106;2022-11-15T16:17:48;12.00;99.90
12632;DHT22;6381;45.748;12.106;2022-11-15T16:20:34;12.00;99.90
12632;DHT22;6381;45.748;12.106;2022-11-15T16:23:06;11.80;99.90
12632;DHT22;6381;45.748;12.106;2022-11-15T16:25:40;11.90;99.90
12632;DHT22;6381;45.748;12.106;2022-11-15T16:28:19;12.00;99.90
12632;DHT22;6381;45.748;12.106;2022-11-15T16:30:48;12.00;99.90
12632;DHT22;6381;45.748;12.106;2022-11-15T16:33:23;12.00;99.90
12632;DHT22;6381;45.748;12.106;2022-11-15T16:35:52;12.00;99.90
12632;DHT22;6381;45.748;12.106;2022-11-15T16:38:23;11.90;99.90
12632;DHT22;6381;45.748;12.106;2022-11-15T16:40:52;11.90;99.90
12632;DHT22;6381;45.748;12.106;2022-11-15T16:43:21;12.10;99.90
12632;DHT22;6381;45.748;12.106;2022-11-15T16:45:50;12.10;99.90
12632;DHT22;6381;45.748;12.106;2022-11-15T16:48:21;12.00;99.90
12632;DHT22;6381;45.748;12.106;2022-11-15T16:50:54;12.00;99.90
12632;DHT22;6381;45.748;12.106;2022-11-15T16:53:26;12.00;99.90
12632;DHT22;6381;45.748;12.106;2022-11-15T16:55:55;12.00;99.90
12632;DHT22;6381;45.748;12.106;2022-11-15T16:58:24;12.00;99.90
12632;DHT22;6381;45.748;12.106;2022-11-15T17:00:54;11.80;99.90
12632;DHT22;6381;45.748;12.106;2022-11-15T17:03:24;11.60;99.90
12632;DHT22;6381;45.748;12.106;2022-11-15T17:05:57;11.70;99.90
12632;DHT22;6381;45.748;12.106;2022-11-15T17:08:28;11.60;99.90
12632;DHT22;6381;45.748;12.106;2022-11-15T17:11:03;11.70;99.90
12632;DHT22;6381;45.748;12.106;2022-11-15T17:13:32;11.60;99.90
12632;DHT22;6381;45.748;12.106;2022-11-15T17:16:06;11.50;99.90
12632;DHT22;6381;45.748;12.106;2022-11-15T17:18:36;11.50;99.90
12632;DHT22;6381;45.748;12.106;2022-11-15T17:21:06;11.50;99.90
12632;DHT22;6381;45.748;12.106;2022-11-15T17:23:38;11.50;99.90
12632;DHT22;6381;45.748;12.106;2022-11-15T17:26:08;11.40;99.90
12632;DHT22;6381;45.748;12.106;2022-11-15T17:28:56;11.50;99.90
12632;DHT22;6381;45.748;12.106;2022-11-15T17:31:42;11.30;99.90
12632;DHT22;6381;45.748;12.106;2022-11-15T17:34:11;11.40;99.90
12632;DHT22;6381;45.748;12.106;2022-11-15T17:36:40;11.40;99.90
12632;DHT22;6381;45.748;12.106;2022-11-15T17:39:11;11.50;99.90
12632;DHT22;6381;45.748;12.106;2022-11-15T17:41:39;11.50;99.90
12632;DHT22;6381;45.748;12.106;2022-11-15T17:44:08;11.70;99.90
12632;DHT22;6381;45.748;12.106;2022-11-15T17:46:37;11.60;99.90
12632;DHT22;6381;45.748;12.106;2022-11-15T17:49:07;11.70;99.90
12632;DHT22;6381;45.748;12.106;2022-11-15T17:51:36;11.40;99.90
12632;DHT22;6381;45.748;12.106;2022-11-15T17:54:05;11.30;99.90
12632;DHT22;6381;45.748;12.106;2022-11-15T17:56:38;11.60;99.90
12632;DHT22;6381;45.748;12.106;2022-11-15T17:59:07;11.60;99.90
12632;DHT22;6381;45.748;12.106;2022-11-15T18:01:42;11.50;99.90
12632;DHT22;6381;45.748;12.106;2022-11-15T18:04:11;11.50;99.90
12632;DHT22;6381;45.748;12.106;2022-11-15T18:06:41;11.50;99.90
12632;DHT22;6381;45.748;12.106;2022-11-15T18:09:10;11.40;99.90
12632;DHT22;6381;45.748;12.106;2022-11-15T18:11:41;11.30;99.90
12632;DHT22;6381;45.748;12.106;2022-11-15T18:14:28;11.30;99.90
12632;DHT22;6381;45.748;12.106;2022-11-15T18:16:59;11.20;99.90
12632;DHT22;6381;45.748;12.106;2022-11-15T18:19:27;11.20;99.90
12632;DHT22;6381;45.748;12.106;2022-11-15T18:22:14;11.10;99.90
12632;DHT22;6381;45.748;12.106;2022-11-15T18:24:43;11.30;99.90
12632;DHT22;6381;45.748;12.106;2022-11-15T18:27:14;11.30;99.90
12632;DHT22;6381;45.748;12.106;2022-11-15T18:29:43;11.30;99.90
12632;DHT22;6381;45.748;12.106;2022-11-15T18:32:12;11.30;99.90
12632;DHT22;6381;45.748;12.106;2022-11-15T18:34:44;11.30;99.90
12632;DHT22;6381;45.748;12.106;2022-11-15T18:37:13;11.30;99.90
12632;DHT22;6381;45.748;12.106;2022-11-15T18:39:42;11.20;99.90
12632;DHT22;6381;45.748;12.106;2022-11-15T18:42:16;11.20;99.90
12632;DHT22;6381;45.748;12.106;2022-11-15T18:44:46;11.20;99.90
12632;DHT22;6381;45.748;12.106;2022-11-15T18:47:15;11.30;99.90
12632;DHT22;6381;45.748;12.106;2022-11-15T18:49:45;11.30;99.90
12632;DHT22;6381;45.748;12.106;2022-11-15T18:52:14;11.40;99.90
12632;DHT22;6381;45.748;12.106;2022-11-15T18:54:42;11.40;99.90
12632;DHT22;6381;45.748;12.106;2022-11-15T18:57:13;11.40;99.90
12632;DHT22;6381;45.748;12.106;2022-11-15T18:59:43;11.10;99.90
12632;DHT22;6381;45.748;12.106;2022-11-15T19:02:12;11.20;99.90
12632;DHT22;6381;45.748;12.106;2022-11-15T19:04:41;11.10;99.90
12632;DHT22;6381;45.748;12.106;2022-11-15T19:07:10;10.80;99.90
12632;DHT22;6381;45.748;12.106;2022-11-15T19:09:39;11.20;99.90
12632;DHT22;6381;45.748;12.106;2022-11-15T19:12:08;11.40;99.90
12632;DHT22;6381;45.748;12.106;2022-11-15T19:14:37;11.40;99.90
12632;DHT22;6381;45.748;12.106;2022-11-15T19:17:08;11.40;99.90